createdAt,value
2023-05-09T00:00:30.390Z,15.00
2023-05-09T00:02:58.739Z,14.53
2023-05-09T00:05:27.177Z,12.83
2023-05-09T00:07:56.779Z,14.07
2023-05-09T00:10:25.037Z,15.77
2023-05-09T00:12:53.262Z,15.57
2023-05-09T00:15:21.531Z,14.00
2023-05-09T00:17:50.637Z,16.33
2023-05-09T00:20:18.989Z,18.90
2023-05-09T00:22:47.120Z,14.93
2023-05-09T00:25:16.904Z,13.90
2023-05-09T00:27:45.469Z,15.90
2023-05-09T00:30:14.188Z,17.10
2023-05-09T00:32:42.653Z,18.27
2023-05-09T00:35:11.316Z,13.30
2023-05-09T00:37:39.620Z,11.90
2023-05-09T00:40:09.363Z,12.53
2023-05-09T00:42:39.084Z,10.70
2023-05-09T00:45:08.649Z,12.40
2023-05-09T00:47:36.936Z,15.50
2023-05-09T00:50:06.135Z,11.30
2023-05-09T00:52:34.900Z,12.57
2023-05-09T00:55:03.458Z,18.87
2023-05-09T00:57:31.708Z,13.43
2023-05-09T01:00:01.556Z,11.33
2023-05-09T01:02:30.103Z,10.27
2023-05-09T01:04:58.582Z,14.33
2023-05-09T01:07:47.190Z,16.00
2023-05-09T01:10:21.487Z,13.63
2023-05-09T01:12:55.115Z,11.77
2023-05-09T01:15:28.588Z,13.63
2023-05-09T01:18:00.579Z,12.40
2023-05-09T01:20:33.500Z,13.53
2023-05-09T01:23:13.743Z,11.10
2023-05-09T01:25:57.090Z,14.10
2023-05-09T01:28:36.858Z,12.90
2023-05-09T01:31:08.132Z,10.70
2023-05-09T01:33:40.426Z,13.60
2023-05-09T01:36:13.609Z,11.37
2023-05-09T01:38:46.135Z,12.20
2023-05-09T01:41:20.511Z,9.20
2023-05-09T01:43:50.613Z,12.47
2023-05-09T01:46:20.976Z,10.73
2023-05-09T01:48:50.170Z,14.33
2023-05-09T01:51:20.915Z,11.10
2023-05-09T01:53:49.756Z,12.37
2023-05-09T01:56:20.087Z,12.40
2023-05-09T01:58:50.183Z,11.13
2023-05-09T02:01:21.000Z,14.73
2023-05-09T02:03:52.676Z,11.17
2023-05-09T02:06:22.098Z,12.37
2023-05-09T02:08:51.104Z,13.60
2023-05-09T02:11:19.374Z,12.00
2023-05-09T02:13:47.665Z,12.57
2023-05-09T02:16:17.254Z,10.00
2023-05-09T02:18:47.192Z,12.30
2023-05-09T02:21:15.611Z,12.37
2023-05-09T02:23:43.971Z,9.67
2023-05-09T02:26:12.499Z,10.13
2023-05-09T02:28:41.336Z,9.10
2023-05-09T02:31:09.775Z,9.70
2023-05-09T02:33:39.420Z,10.63
2023-05-09T02:36:11.915Z,11.37
2023-05-09T02:38:41.708Z,11.17
2023-05-09T02:41:14.143Z,9.40
2023-05-09T02:43:42.880Z,7.20
2023-05-09T02:46:11.613Z,10.07
2023-05-09T02:48:39.871Z,8.70
2023-05-09T02:51:09.545Z,8.00
2023-05-09T02:53:37.716Z,18.97
2023-05-09T02:56:06.492Z,14.87
2023-05-09T02:58:34.764Z,7.43
2023-05-09T03:01:03.218Z,8.37
2023-05-09T03:03:34.150Z,8.87
2023-05-09T03:06:05.108Z,10.43
2023-05-09T03:08:34.697Z,10.43
2023-05-09T03:11:03.071Z,9.57
2023-05-09T03:13:31.987Z,9.10
2023-05-09T03:16:00.566Z,8.20
2023-05-09T03:18:28.873Z,6.00
2023-05-09T03:20:57.091Z,8.20
2023-05-09T03:23:25.556Z,6.83
2023-05-09T03:25:55.602Z,8.10
2023-05-09T03:28:23.969Z,9.87
2023-05-09T03:30:52.198Z,8.37
2023-05-09T03:33:23.817Z,8.57
2023-05-09T03:35:53.492Z,7.60
2023-05-09T03:38:24.353Z,10.07
2023-05-09T03:40:55.059Z,7.07
2023-05-09T03:43:25.641Z,9.20
2023-05-09T03:45:54.434Z,8.80
2023-05-09T03:48:22.632Z,7.60
2023-05-09T03:50:52.916Z,9.00
2023-05-09T03:53:21.804Z,7.40
2023-05-09T03:55:51.636Z,7.33
2023-05-09T03:58:20.670Z,9.60
2023-05-09T04:00:50.822Z,6.20
2023-05-09T04:03:23.381Z,7.67
2023-05-09T04:05:53.216Z,8.10
2023-05-09T04:08:37.942Z,7.67
2023-05-09T04:11:06.832Z,8.40
2023-05-09T04:13:36.372Z,7.03
2023-05-09T04:16:12.522Z,7.43
2023-05-09T04:18:42.342Z,7.50
2023-05-09T04:21:10.867Z,6.67
2023-05-09T04:23:40.797Z,6.67
2023-05-09T04:26:09.712Z,6.80
2023-05-09T04:28:39.058Z,6.77
2023-05-09T04:31:08.304Z,7.13
2023-05-09T04:33:39.484Z,6.33
2023-05-09T04:36:10.779Z,5.93
2023-05-09T04:38:39.199Z,9.27
2023-05-09T04:41:11.306Z,6.20
2023-05-09T04:43:39.447Z,7.20
2023-05-09T04:46:10.049Z,7.20
2023-05-09T04:48:40.025Z,14.40
2023-05-09T04:51:08.289Z,8.80
2023-05-09T04:53:36.607Z,8.70
2023-05-09T04:56:05.115Z,8.53
2023-05-09T04:58:34.552Z,6.03
2023-05-09T05:01:02.992Z,7.60
2023-05-09T05:03:31.691Z,6.57
2023-05-09T05:06:01.630Z,5.63
2023-05-09T05:08:29.908Z,6.27
2023-05-09T05:11:06.153Z,6.60
2023-05-09T05:13:35.928Z,6.50
2023-05-09T05:16:04.659Z,8.83
2023-05-09T05:18:33.014Z,6.23
2023-05-09T05:21:02.751Z,7.53
2023-05-09T05:23:31.081Z,5.73
2023-05-09T05:25:59.790Z,11.33
2023-05-09T05:28:30.670Z,5.10
2023-05-09T05:30:59.428Z,5.30
2023-05-09T05:33:27.854Z,6.53
2023-05-09T05:35:56.752Z,5.53
2023-05-09T05:38:26.430Z,7.20
2023-05-09T05:40:57.274Z,5.47
2023-05-09T05:43:27.318Z,7.43
2023-05-09T05:45:56.300Z,6.40
2023-05-09T05:48:26.760Z,7.80
2023-05-09T05:50:55.897Z,5.53
2023-05-09T05:53:32.070Z,3.73
2023-05-09T05:56:01.242Z,5.30
2023-05-09T05:58:30.287Z,4.33
2023-05-09T06:00:58.519Z,4.50
2023-05-09T06:03:26.990Z,5.33
2023-05-09T06:06:01.774Z,5.67
2023-05-09T06:08:32.024Z,5.70
2023-05-09T06:11:02.008Z,6.00
2023-05-09T06:13:30.384Z,6.73
2023-05-09T06:16:18.776Z,5.47
2023-05-09T06:18:51.162Z,4.97
2023-05-09T06:21:19.962Z,5.10
2023-05-09T06:24:04.338Z,6.43
2023-05-09T06:26:36.638Z,4.80
2023-05-09T06:29:06.385Z,8.57
2023-05-09T06:31:38.409Z,4.97
2023-05-09T06:34:06.915Z,5.90
2023-05-09T06:36:35.207Z,5.60
2023-05-09T06:39:04.864Z,5.63
2023-05-09T06:41:33.093Z,6.50
2023-05-09T06:44:02.604Z,5.57
2023-05-09T06:46:30.814Z,5.10
2023-05-09T06:49:01.767Z,5.27
2023-05-09T06:51:30.078Z,5.43
2023-05-09T06:53:58.380Z,4.70
2023-05-09T06:56:28.262Z,5.07
2023-05-09T06:58:56.471Z,5.23
2023-05-09T07:01:24.831Z,4.93
2023-05-09T07:03:53.011Z,3.13
2023-05-09T07:06:21.464Z,5.33
2023-05-09T07:08:49.643Z,5.60
2023-05-09T07:11:17.929Z,4.83
2023-05-09T07:13:47.563Z,5.23
2023-05-09T07:16:16.022Z,5.13
2023-05-09T07:18:45.184Z,5.20
2023-05-09T07:21:13.928Z,4.57
2023-05-09T07:23:42.271Z,6.90
2023-05-09T07:26:10.454Z,4.97
2023-05-09T07:28:39.072Z,4.10
2023-05-09T07:31:09.474Z,5.33
2023-05-09T07:33:37.843Z,3.63
2023-05-09T07:36:06.649Z,4.90
2023-05-09T07:38:34.867Z,4.90
2023-05-09T07:41:03.280Z,6.53
2023-05-09T07:43:32.050Z,3.87
2023-05-09T07:46:02.600Z,5.03
2023-05-09T07:48:32.452Z,8.87
2023-05-09T07:51:01.115Z,4.93
2023-05-09T07:53:29.530Z,5.13
2023-05-09T07:55:59.157Z,4.07
2023-05-09T07:58:27.396Z,4.80
2023-05-09T08:00:57.414Z,5.23
2023-05-09T08:03:25.975Z,4.10
2023-05-09T08:05:56.454Z,5.00
2023-05-09T08:08:24.843Z,6.00
2023-05-09T08:10:53.033Z,5.20
2023-05-09T08:13:22.351Z,5.03
2023-05-09T08:15:50.849Z,5.13
2023-05-09T08:18:19.048Z,5.13
2023-05-09T08:20:47.193Z,6.37
2023-05-09T08:23:16.750Z,3.97
2023-05-09T08:25:44.860Z,4.40
2023-05-09T08:28:13.023Z,4.40
2023-05-09T08:30:41.278Z,5.07
2023-05-09T08:33:09.436Z,5.67
2023-05-09T08:35:37.678Z,5.43
2023-05-09T08:38:05.825Z,6.30
2023-05-09T08:40:38.783Z,5.30
2023-05-09T08:43:08.535Z,6.77
2023-05-09T08:45:41.235Z,6.47
2023-05-09T08:48:10.073Z,5.97
2023-05-09T08:50:38.646Z,5.80
2023-05-09T08:53:07.825Z,5.03
2023-05-09T08:55:38.126Z,5.83
2023-05-09T08:58:07.086Z,5.10
2023-05-09T09:00:35.399Z,5.60
2023-05-09T09:03:04.568Z,5.00
2023-05-09T09:05:41.359Z,6.00
2023-05-09T09:08:11.117Z,5.90
2023-05-09T09:10:43.531Z,4.93
2023-05-09T09:13:12.801Z,5.80
2023-05-09T09:15:42.713Z,5.67
2023-05-09T09:18:13.815Z,5.10
2023-05-09T09:20:45.305Z,6.30
2023-05-09T09:23:13.967Z,5.30
2023-05-09T09:25:47.123Z,5.97
2023-05-09T09:28:15.489Z,5.60
2023-05-09T09:30:48.565Z,5.83
2023-05-09T09:33:23.413Z,7.60
2023-05-09T09:35:52.495Z,5.57
2023-05-09T09:38:21.290Z,6.17
2023-05-09T09:40:57.650Z,4.67
2023-05-09T09:43:29.364Z,4.77
2023-05-09T09:45:58.559Z,5.67
2023-05-09T09:48:27.093Z,4.90
2023-05-09T09:50:57.860Z,6.17
2023-05-09T09:53:30.325Z,5.70
2023-05-09T09:56:00.124Z,7.90
2023-05-09T09:58:28.346Z,6.40
2023-05-09T10:01:07.510Z,6.07
2023-05-09T10:03:39.935Z,6.57
2023-05-09T10:06:12.286Z,5.50
2023-05-09T10:08:40.552Z,8.13
2023-05-09T10:11:10.750Z,6.00
2023-05-09T10:13:39.424Z,5.17
2023-05-09T10:16:10.162Z,5.60
2023-05-09T10:18:39.400Z,7.73
2023-05-09T10:21:09.586Z,8.53
2023-05-09T10:23:39.322Z,5.83
2023-05-09T10:26:18.872Z,5.97
2023-05-09T10:28:47.914Z,5.40
2023-05-09T10:31:19.694Z,5.00
2023-05-09T10:33:48.950Z,7.03
2023-05-09T10:36:20.489Z,7.10
2023-05-09T10:38:49.389Z,6.07
2023-05-09T10:41:19.802Z,6.37
2023-05-09T10:43:48.537Z,6.30
2023-05-09T10:46:17.441Z,7.40
2023-05-09T10:48:46.198Z,6.00
2023-05-09T10:51:14.486Z,8.47
2023-05-09T10:53:44.387Z,6.53
2023-05-09T10:56:27.096Z,7.27
2023-05-09T10:58:55.780Z,6.20
2023-05-09T11:01:32.880Z,5.77
2023-05-09T11:04:02.055Z,6.73
2023-05-09T11:06:57.848Z,5.80
2023-05-09T11:09:34.074Z,6.63
2023-05-09T11:12:11.821Z,6.43
2023-05-09T11:14:42.396Z,5.77
2023-05-09T11:17:12.641Z,5.37
2023-05-09T11:20:01.052Z,7.03
2023-05-09T11:22:30.833Z,7.57
2023-05-09T11:25:05.760Z,6.77
2023-05-09T11:27:42.502Z,7.50
2023-05-09T11:30:14.326Z,7.23
2023-05-09T11:32:44.942Z,6.40
2023-05-09T11:35:15.546Z,7.07
2023-05-09T11:37:48.510Z,8.70
2023-05-09T11:40:18.406Z,6.60
2023-05-09T11:42:50.004Z,7.30
2023-05-09T11:45:18.794Z,12.33
2023-05-09T11:47:47.958Z,7.33
2023-05-09T11:50:17.753Z,8.30
2023-05-09T11:52:46.377Z,7.93
2023-05-09T11:55:16.725Z,6.60
2023-05-09T11:57:48.922Z,6.43
2023-05-09T12:00:18.187Z,6.57
2023-05-09T12:02:47.219Z,7.67
2023-05-09T12:05:17.552Z,6.03
2023-05-09T12:07:46.281Z,8.20
2023-05-09T12:10:15.921Z,7.43
2023-05-09T12:12:45.738Z,9.73
2023-05-09T12:15:16.125Z,7.07
2023-05-09T12:17:46.883Z,6.87
2023-05-09T12:20:15.925Z,9.00
2023-05-09T12:22:45.021Z,7.03
2023-05-09T12:25:13.960Z,7.27
2023-05-09T12:27:43.112Z,7.63
2023-05-09T12:30:14.219Z,5.60
2023-05-09T12:32:44.142Z,6.27
2023-05-09T12:35:12.525Z,5.27
2023-05-09T12:37:40.692Z,9.07
2023-05-09T12:40:13.117Z,6.47
2023-05-09T12:42:46.125Z,7.97
2023-05-09T12:45:15.790Z,6.70
2023-05-09T12:47:45.766Z,7.07
2023-05-09T12:50:14.050Z,6.87
2023-05-09T12:53:01.352Z,6.40
2023-05-09T12:55:31.907Z,6.63
2023-05-09T12:58:02.305Z,5.27
2023-05-09T13:00:43.173Z,5.30
2023-05-09T13:03:25.255Z,5.00
2023-05-09T13:05:58.102Z,7.50
2023-05-09T13:08:26.739Z,5.10
2023-05-09T13:11:03.927Z,5.33
2023-05-09T13:13:43.295Z,6.07
2023-05-09T13:16:13.480Z,5.80
2023-05-09T13:18:45.677Z,5.73
2023-05-09T13:21:14.049Z,5.10
2023-05-09T13:23:44.590Z,5.00
2023-05-09T13:26:12.848Z,5.90
2023-05-09T13:28:41.169Z,5.70
2023-05-09T13:31:09.609Z,9.73
2023-05-09T13:33:37.842Z,4.73
2023-05-09T13:36:08.188Z,6.43
2023-05-09T13:38:38.863Z,6.23
2023-05-09T13:41:07.462Z,5.13
2023-05-09T13:43:35.750Z,5.47
2023-05-09T13:46:04.399Z,7.37
2023-05-09T13:48:32.630Z,7.10
2023-05-09T13:51:01.512Z,6.17
2023-05-09T13:53:31.444Z,5.40
2023-05-09T13:55:59.770Z,5.40
2023-05-09T13:58:28.010Z,4.57
2023-05-09T14:00:56.224Z,4.47
2023-05-09T14:03:24.681Z,6.40
2023-05-09T14:05:53.491Z,6.70
2023-05-09T14:08:22.732Z,6.87
2023-05-09T14:10:52.739Z,6.27
2023-05-09T14:13:23.562Z,7.13
2023-05-09T14:16:02.271Z,5.77
2023-05-09T14:18:31.074Z,5.90
2023-05-09T14:21:00.352Z,6.03
2023-05-09T14:23:31.591Z,7.53
2023-05-09T14:26:01.593Z,5.80
2023-05-09T14:28:29.917Z,4.77
2023-05-09T14:30:58.849Z,6.40
2023-05-09T14:33:29.189Z,4.67
2023-05-09T14:36:02.951Z,4.70
2023-05-09T14:38:37.742Z,4.43
2023-05-09T14:41:09.252Z,5.00
2023-05-09T14:43:37.618Z,4.30
2023-05-09T14:46:06.776Z,5.07
2023-05-09T14:48:34.974Z,4.63
2023-05-09T14:51:03.316Z,4.13
2023-05-09T14:53:31.714Z,5.83
2023-05-09T14:56:00.304Z,4.70
2023-05-09T14:58:30.994Z,5.73
2023-05-09T15:00:59.336Z,6.30
2023-05-09T15:03:27.693Z,5.30
2023-05-09T15:05:55.982Z,4.00
2023-05-09T15:08:24.191Z,3.87
2023-05-09T15:10:52.434Z,4.40
2023-05-09T15:13:21.022Z,6.90
2023-05-09T15:15:51.102Z,5.17
2023-05-09T15:18:20.171Z,4.97
2023-05-09T15:20:52.065Z,4.70
2023-05-09T15:23:20.730Z,4.27
2023-05-09T15:25:49.333Z,4.30
2023-05-09T15:28:17.569Z,5.20
2023-05-09T15:30:45.890Z,9.43
2023-05-09T15:33:15.768Z,4.57
2023-05-09T15:35:45.183Z,4.50
2023-05-09T15:38:14.379Z,3.77
2023-05-09T15:40:44.377Z,4.40
2023-05-09T15:43:13.021Z,4.20
2023-05-09T15:45:45.715Z,5.33
2023-05-09T15:48:16.357Z,7.47
2023-05-09T15:50:45.763Z,4.07
2023-05-09T15:53:15.635Z,4.60
2023-05-09T15:55:44.147Z,7.00
2023-05-09T15:58:16.399Z,4.37
2023-05-09T16:00:45.463Z,5.13
2023-05-09T16:03:15.359Z,5.70
2023-05-09T16:05:43.897Z,6.60
2023-05-09T16:08:12.942Z,7.50
2023-05-09T16:10:41.696Z,5.03
2023-05-09T16:13:10.392Z,4.60
2023-05-09T16:15:38.673Z,3.70
2023-05-09T16:18:07.758Z,3.40
2023-05-09T16:20:37.546Z,4.13
2023-05-09T16:23:05.704Z,5.43
2023-05-09T16:25:35.393Z,4.37
2023-05-09T16:28:03.901Z,3.43
2023-05-09T16:30:32.313Z,3.80
2023-05-09T16:33:02.730Z,3.03
2023-05-09T16:35:31.028Z,4.23
2023-05-09T16:38:03.305Z,3.93
2023-05-09T16:40:32.253Z,4.33
2023-05-09T16:43:01.749Z,4.53
2023-05-09T16:45:30.405Z,3.43
2023-05-09T16:48:02.599Z,2.73
2023-05-09T16:51:00.129Z,3.03
2023-05-09T16:53:37.379Z,4.90
2023-05-09T16:56:22.138Z,4.10
2023-05-09T16:58:58.016Z,2.67
2023-05-09T17:01:30.277Z,4.67
2023-05-09T17:04:01.813Z,3.80
2023-05-09T17:06:31.151Z,5.33
2023-05-09T17:09:01.961Z,6.80
2023-05-09T17:11:32.551Z,2.83
2023-05-09T17:14:03.571Z,3.47
2023-05-09T17:16:32.838Z,3.43
2023-05-09T17:19:05.250Z,3.60
2023-05-09T17:21:35.879Z,3.43
2023-05-09T17:24:09.312Z,5.10
2023-05-09T17:26:39.289Z,3.63
2023-05-09T17:29:08.296Z,2.93
2023-05-09T17:31:37.631Z,2.90
2023-05-09T17:34:09.275Z,3.70
2023-05-09T17:36:39.101Z,5.60
2023-05-09T17:42:20.181Z,4.50
2023-05-09T17:45:21.493Z,3.50
2023-05-09T17:48:21.607Z,4.13
2023-05-09T17:50:52.291Z,2.90
2023-05-09T17:53:28.704Z,3.40
2023-05-09T17:56:01.672Z,3.00
2023-05-09T17:58:30.932Z,3.63
2023-05-09T18:01:01.659Z,3.50
2023-05-09T18:03:46.450Z,3.10
2023-05-09T18:06:18.924Z,2.83
2023-05-09T18:08:50.053Z,3.60
2023-05-09T18:11:31.407Z,2.63
2023-05-09T18:14:18.003Z,3.60
2023-05-09T18:17:26.990Z,3.97
2023-05-09T18:19:59.127Z,3.60
2023-05-09T18:22:31.505Z,4.20
2023-05-09T18:25:04.099Z,3.60
2023-05-09T18:27:38.613Z,3.40
2023-05-09T18:30:17.423Z,3.93
2023-05-09T18:33:02.504Z,4.57
2023-05-09T18:35:38.842Z,4.00
2023-05-09T18:38:10.566Z,7.83
2023-05-09T18:40:46.363Z,3.53
2023-05-09T18:43:22.079Z,4.80
2023-05-09T18:45:57.200Z,3.93
2023-05-09T18:48:27.884Z,8.90
2023-05-09T18:50:57.659Z,3.93
2023-05-09T18:53:27.374Z,4.47
2023-05-09T18:55:57.489Z,4.63
2023-05-09T18:58:29.037Z,3.70
2023-05-09T19:00:59.951Z,3.23
2023-05-09T19:03:32.077Z,6.17
2023-05-09T19:06:01.505Z,3.53
2023-05-09T19:08:33.477Z,4.53
2023-05-09T19:11:02.736Z,4.93
2023-05-09T19:13:41.133Z,4.60
2023-05-09T19:16:10.730Z,5.40
2023-05-09T19:18:39.976Z,3.90
2023-05-09T19:21:09.478Z,6.73
2023-05-09T19:23:39.561Z,4.20
2023-05-09T19:26:09.825Z,6.50
2023-05-09T19:28:42.175Z,6.10
2023-05-09T19:31:12.258Z,4.97
2023-05-09T19:33:42.301Z,5.67
2023-05-09T19:36:13.990Z,5.97
2023-05-09T19:38:46.436Z,3.07
2023-05-09T19:41:18.495Z,3.77
2023-05-09T19:43:51.917Z,5.83
2023-05-09T19:46:23.303Z,6.23
2023-05-09T19:48:54.130Z,5.33
2023-05-09T19:51:24.016Z,4.50
2023-05-09T19:53:53.220Z,6.47
2023-05-09T19:56:23.863Z,8.07
2023-05-09T19:58:55.505Z,5.23
2023-05-09T20:01:25.802Z,5.87
2023-05-09T20:03:57.393Z,5.27
2023-05-09T20:06:27.604Z,6.40
2023-05-09T20:08:56.924Z,4.90
2023-05-09T20:11:26.360Z,9.80
2023-05-09T20:13:57.001Z,4.93
2023-05-09T20:16:27.239Z,6.00
2023-05-09T20:18:59.682Z,6.77
2023-05-09T20:21:30.076Z,4.33
2023-05-09T20:24:01.201Z,4.80
2023-05-09T20:26:31.397Z,7.00
2023-05-09T20:29:08.206Z,6.67
2023-05-09T20:31:37.611Z,5.33
2023-05-09T20:34:11.206Z,6.57
2023-05-09T20:36:40.468Z,4.80
2023-05-09T20:39:11.610Z,5.07
2023-05-09T20:41:43.561Z,5.77
2023-05-09T20:44:19.222Z,8.00
2023-05-09T20:46:49.951Z,7.77
2023-05-09T20:49:19.835Z,5.93
2023-05-09T20:51:52.112Z,4.13
2023-05-09T20:54:21.020Z,5.00
2023-05-09T20:56:50.311Z,7.63
2023-05-09T20:59:22.688Z,5.40
2023-05-09T21:01:52.299Z,9.70
2023-05-09T21:04:21.320Z,6.20
2023-05-09T21:06:51.061Z,3.73
2023-05-09T21:09:22.023Z,13.43
2023-05-09T21:11:54.050Z,4.00
2023-05-09T21:14:24.661Z,6.13
2023-05-09T21:16:57.535Z,4.83
2023-05-09T21:19:27.271Z,7.53
2023-05-09T21:21:56.184Z,5.90
2023-05-09T21:24:26.637Z,5.50
2023-05-09T21:27:04.992Z,5.20
2023-05-09T21:29:44.626Z,4.37
2023-05-09T21:32:17.075Z,5.10
2023-05-09T21:34:54.996Z,6.50
2023-05-09T21:37:28.755Z,8.60
2023-05-09T21:40:04.164Z,6.40
2023-05-09T21:42:37.550Z,7.67
2023-05-09T21:45:16.601Z,11.10
2023-05-09T21:47:45.270Z,9.27
2023-05-09T21:50:23.441Z,5.80
2023-05-09T21:53:01.226Z,6.20
2023-05-09T21:55:58.750Z,5.50
2023-05-09T22:02:14.802Z,5.27
2023-05-09T22:04:45.276Z,6.50
2023-05-09T22:07:14.035Z,4.07
2023-05-09T22:09:42.764Z,3.90
2023-05-09T22:12:11.080Z,4.07
2023-05-09T22:14:52.754Z,5.13
2023-05-09T22:17:27.235Z,6.97
2023-05-09T22:19:58.040Z,7.73
2023-05-09T22:22:28.316Z,4.73
2023-05-09T22:24:59.133Z,6.10
2023-05-09T22:27:57.950Z,5.17
2023-05-09T22:30:37.354Z,6.70
2023-05-09T22:33:10.165Z,4.57
2023-05-09T22:35:46.118Z,6.63
2023-05-09T22:38:21.849Z,4.50
2023-05-09T22:40:50.524Z,4.57
2023-05-09T22:43:20.249Z,4.53
2023-05-09T22:45:48.865Z,5.47
2023-05-09T22:48:20.843Z,3.67
2023-05-09T22:50:51.427Z,12.90
2023-05-09T22:53:27.490Z,4.60
2023-05-09T22:55:59.987Z,5.17
2023-05-09T22:58:33.495Z,4.60
2023-05-09T23:01:02.784Z,5.23
2023-05-09T23:03:32.899Z,5.60
2023-05-09T23:08:55.394Z,3.57
2023-05-09T23:11:24.539Z,8.07
2023-05-09T23:14:02.111Z,4.47
2023-05-09T23:17:25.837Z,6.30
2023-05-09T23:20:09.375Z,4.50
2023-05-09T23:22:41.032Z,7.10
2023-05-09T23:25:34.260Z,3.90
2023-05-09T23:28:09.082Z,4.83
2023-05-09T23:30:42.525Z,4.00
2023-05-09T23:33:16.505Z,4.37
2023-05-09T23:36:03.761Z,3.97
2023-05-09T23:38:35.647Z,4.20
2023-05-09T23:41:05.495Z,4.37
2023-05-09T23:43:36.105Z,5.30
2023-05-09T23:46:05.316Z,5.47
2023-05-09T23:48:38.649Z,7.47
2023-05-09T23:51:13.452Z,7.27
2023-05-09T23:53:49.248Z,4.77
2023-05-09T23:56:44.812Z,8.47
2023-05-09T23:59:13.013Z,3.40
